»·PEaware :: N630AJ KBOI-KSUN

N630AJ :: KBOI-KSUN

FLIGHT INFORMATION

Flight Status: Arrived
Operator: Privately registered:
United States
More flights under this callsign
Pilot: David J. (16724)
Aircraft: Unknown
(PIPA)
More flights by this aircraft type
Origin: KBOI Boise Air Terminal/Gowen
United States
Destination: KSUN Friedman Meml
United States
More flights between these airports :: More routes between these airports
Route: +BOI3 BOI V444 SOLDE HLE
File this flight plan on PilotEdge
Remarks:
Altitude:
(Current/Filed)
9,000ft
Speed:
(Current/Filed)
180kts
Departed: 13-Mar-18 01:32 PM
Arrived: 13-Mar-18 02:07 PM
Distance/Time
Traveled:
84nm/0:35
Distance/Time
To Go:
Arrived

Flight Plot

Page will automatically refresh every two minutes.

Flight plan parsing failed; only flown route is shown


Map Options




Map Legend


Flown Route
Filed Route
Departure Airport
Arrival Airport
Navaid (VOR, NDB)
Fix

Horizontal Profiles

Position Reports

Time Latitude Longitude Heading Altitude Ground
Speed
13-Mar-18 13:11 43.569113 -116.226573 2 2841ft 0kts
13-Mar-18 13:12 43.569113 -116.226573 2 2841ft 0kts
13-Mar-18 13:13 43.569113 -116.226573 2 2841ft 0kts
13-Mar-18 13:14 43.569113 -116.226573 2 2841ft 0kts
13-Mar-18 13:15 43.569113 -116.226573 2 2841ft 0kts
13-Mar-18 13:16 43.569113 -116.226573 2 2841ft 0kts
13-Mar-18 13:17 43.569113 -116.226573 2 2841ft 0kts
13-Mar-18 13:18 43.569113 -116.226573 2 2841ft 0kts
13-Mar-18 13:19 43.569113 -116.226573 2 2841ft 0kts
13-Mar-18 13:20 43.569113 -116.226573 2 2841ft 0kts
13-Mar-18 13:21 43.569113 -116.226573 2 2841ft 0kts
13-Mar-18 13:22 43.569113 -116.226573 2 2841ft 0kts
13-Mar-18 13:23 43.569113 -116.226573 2 2841ft 0kts
13-Mar-18 13:24 43.569113 -116.226573 2 2841ft 0kts
13-Mar-18 13:25 43.569113 -116.226573 2 2841ft 0kts
13-Mar-18 13:26 43.569113 -116.226573 2 2841ft 0kts
13-Mar-18 13:27 43.568800 -116.228123 199 2842ft 5kts
13-Mar-18 13:28 43.569667 -116.231637 294 2842ft 17kts
13-Mar-18 13:29 43.570874 -116.235757 239 2841ft 0kts
13-Mar-18 13:30 43.570874 -116.235757 239 2841ft 0kts
13-Mar-18 13:31 43.568370 -116.231116 118 2859ft 68kts
13-Mar-18 13:32 43.556571 -116.197814 127 4006ft 101kts
13-Mar-18 13:33 43.541585 -116.158453 120 5002ft 131kts
13-Mar-18 13:34 43.526088 -116.112840 120 6131ft 134kts
13-Mar-18 13:35 43.510386 -116.066675 121 7179ft 136kts
13-Mar-18 13:36 43.518058 -116.010873 84 8119ft 154kts
13-Mar-18 13:37 43.510182 -115.955800 110 9037ft 149kts
13-Mar-18 13:38 43.500675 -115.900117 110 9908ft 152kts
13-Mar-18 13:39 43.490762 -115.843214 110 10706ft 155kts
13-Mar-18 13:40 43.479859 -115.781841 110 11025ft 180kts
13-Mar-18 13:41 43.467235 -115.711125 109 11025ft 196kts
13-Mar-18 13:42 43.454194 -115.638383 109 11027ft 196kts
13-Mar-18 13:43 43.440984 -115.565202 109 11027ft 197kts
13-Mar-18 13:44 43.427829 -115.492729 109 11027ft 197kts
13-Mar-18 13:45 43.414498 -115.419630 109 11027ft 197kts
13-Mar-18 13:46 43.401127 -115.346601 110 11027ft 197kts
13-Mar-18 13:47 43.387733 -115.273772 110 11026ft 196kts
13-Mar-18 13:48 43.374280 -115.200897 110 11026ft 196kts
13-Mar-18 13:49 43.360854 -115.128630 109 11053ft 195kts
13-Mar-18 13:50 43.347146 -115.055119 108 10936ft 196kts
13-Mar-18 13:51 43.333519 -114.982127 108 10972ft 199kts
13-Mar-18 13:52 43.319674 -114.908259 108 10986ft 201kts
13-Mar-18 13:53 43.305643 -114.833670 108 10988ft 201kts
13-Mar-18 13:54 43.291559 -114.759124 108 10994ft 201kts
13-Mar-18 13:55 43.277483 -114.684943 108 10999ft 201kts
13-Mar-18 13:56 43.263270 -114.610319 108 10999ft 201kts
13-Mar-18 13:57 43.267031 -114.534273 76 10999ft 208kts
13-Mar-18 13:58 43.283164 -114.458099 76 10999ft 208kts
13-Mar-18 13:59 43.299745 -114.381554 75 10999ft 209kts
13-Mar-18 14:00 43.316381 -114.305419 76 10999ft 208kts
13-Mar-18 14:01 43.352029 -114.247011 27 9106ft 202kts
13-Mar-18 14:02 43.405305 -114.238258 346 7216ft 186kts
13-Mar-18 14:03 43.451346 -114.256811 342 6032ft 149kts
13-Mar-18 14:04 43.478592 -114.271092 319 5720ft 84kts
13-Mar-18 14:05 43.497121 -114.289112 323 5294ft 62kts
13-Mar-18 14:06 43.503943 -114.295749 305 5294ft 11kts
13-Mar-18 14:07 43.502258 -114.295603 149 5294ft 19kts
13-Mar-18 14:08 43.501498 -114.296570 89 5294ft 7kts

Navigation Log

Ident Type
Flight plan parsing failed, navigation log unavailable